Time;durP1;ratioP1;P1;durP2;ratioP2;P2;SDS_P1;SDS_P2;PMS_P1;PMS_P2;Temp;Humidity;BMP_temperature;BMP_pressure;BME280_temperature;BME280_humidity;BME280_pressure;Samples;Min_cycle;Max_cycle;Signal;HPM_P1;HPM_P2
2023/01/15 00:02:48;;;;;;;3.08;1.05;;;;;;;10.83;81.93;98746.59;10334325;28;20563;-67
2023/01/15 00:07:51;;;;;;;1.80;0.85;;;;;;;10.87;82.30;98751.31;10331670;28;20052;-64
2023/01/15 00:12:52;;;;;;;3.65;0.88;;;;;;;10.95;81.63;98755.59;10334998;28;20050;-66
2023/01/15 00:17:53;;;;;;;3.55;0.80;;;;;;;10.96;82.13;98749.19;10336911;28;20066;-62
2023/01/15 00:22:55;;;;;;;3.83;1.02;;;;;;;11.02;81.70;98728.66;10334079;28;20070;-66
2023/01/15 00:27:56;;;;;;;1.60;0.60;;;;;;;11.01;82.28;98730.53;10330742;28;20065;-66
2023/01/15 00:32:58;;;;;;;2.53;0.40;;;;;;;11.02;82.38;98724.13;10330856;28;20133;-63
2023/01/15 00:37:59;;;;;;;3.10;0.68;;;;;;;11.06;82.25;98714.56;10332467;28;20504;-66
2023/01/15 00:43:01;;;;;;;4.90;0.47;;;;;;;11.10;82.25;98720.34;10340083;28;20073;-65
2023/01/15 00:48:02;;;;;;;3.83;0.43;;;;;;;11.14;82.23;98723.38;10338107;28;20051;-63
2023/01/15 00:53:04;;;;;;;1.30;0.25;;;;;;;11.18;82.03;98733.50;10341245;28;20054;-65
2023/01/15 00:58:05;;;;;;;0.40;0.30;;;;;;;11.22;82.14;98733.88;10345072;28;20444;-65
2023/01/15 01:03:06;;;;;;;1.33;0.30;;;;;;;11.25;82.18;98738.81;10338533;28;20104;-65
2023/01/15 01:08:08;;;;;;;2.13;0.32;;;;;;;11.23;82.69;98757.03;10336444;28;20135;-66
2023/01/15 01:13:10;;;;;;;2.45;0.63;;;;;;;11.13;83.15;98757.53;10338592;28;20050;-66
2023/01/15 01:18:11;;;;;;;0.30;0.20;;;;;;;11.15;82.54;98755.44;10339896;28;20070;-67
2023/01/15 01:23:13;;;;;;;0.20;0.13;;;;;;;10.77;83.21;98759.03;10343225;28;20184;-65
2023/01/15 01:28:14;;;;;;;0.00;0.00;;;;;;;10.71;83.02;98754.53;10337824;28;20485;-65
2023/01/15 01:33:15;;;;;;;0.22;0.10;;;;;;;10.76;82.71;98761.91;10337450;28;20126;-63
2023/01/15 01:38:17;;;;;;;0.10;0.00;;;;;;;10.71;82.49;98766.09;10339879;28;20069;-66
2023/01/15 01:43:24;;;;;;;0.10;0.00;;;;;;;10.70;82.47;98774.34;10337644;28;20408;-65
2023/01/15 01:48:33;;;;;;;0.50;0.32;;;;;;;10.80;82.16;98780.09;10338220;28;20124;-64
2023/01/15 01:53:34;;;;;;;0.25;0.10;;;;;;;10.77;81.88;98796.66;10343085;28;20124;-65
2023/01/15 01:58:36;;;;;;;2.33;0.10;;;;;;;10.83;82.12;98800.34;10338581;28;20107;-64
2023/01/15 02:03:39;;;;;;;0.00;0.00;;;;;;;10.78;81.83;98814.44;10336030;28;20070;-59
2023/01/15 02:08:40;;;;;;;0.00;0.00;;;;;;;10.51;82.38;98830.69;10344816;28;20073;-59
2023/01/15 02:14:01;;;;;;;0.10;0.00;;;;;;;9.88;82.69;98841.16;10344122;28;20060;-60
2023/01/15 02:19:40;;;;;;;0.20;0.00;;;;;;;9.58;82.18;98855.03;10330285;28;20085;-59
2023/01/15 02:25:03;;;;;;;0.10;0.00;;;;;;;9.45;82.41;98847.78;10336091;28;20081;-61
2023/01/15 02:30:05;;;;;;;0.35;0.00;;;;;;;9.35;82.17;98857.28;10310122;28;20070;-61
2023/01/15 02:35:22;;;;;;;0.90;0.00;;;;;;;9.30;81.85;98860.56;10343134;28;20065;-59
2023/01/15 02:40:25;;;;;;;1.37;0.00;;;;;;;9.27;81.67;98859.13;10339021;28;20058;-59
2023/01/15 02:45:31;;;;;;;1.42;0.00;;;;;;;9.20;81.87;98858.31;10343471;28;20556;-59
2023/01/15 02:50:38;;;;;;;0.00;0.00;;;;;;;9.36;81.20;98862.44;10344640;28;20046;-59
2023/01/15 02:55:46;;;;;;;1.00;0.00;;;;;;;9.19;81.51;98872.72;10341239;28;20141;-59
2023/01/15 03:00:48;;;;;;;;;;;;;;;8.88;82.40;98876.75;10340884;28;20039;-59
2023/01/15 03:06:01;;;;;;;0.45;0.00;;;;;;;8.78;82.48;98880.84;10338385;28;19928;-60
2023/01/15 03:11:10;;;;;;;0.05;0.00;;;;;;;8.67;82.46;98888.44;10335794;28;20556;-61
2023/01/15 03:16:37;;;;;;;0.10;0.00;;;;;;;8.56;82.66;98904.25;10334268;28;20097;-60
2023/01/15 03:21:56;;;;;;;0.00;0.00;;;;;;;8.30;82.22;98901.19;10332917;28;20053;-59
2023/01/15 03:26:59;;;;;;;0.00;0.00;;;;;;;7.98;82.26;98913.34;10332597;28;20046;-58
2023/01/15 03:32:02;;;;;;;0.10;0.00;;;;;;;8.02;82.04;98916.47;10331467;28;20052;-59
2023/01/15 03:37:04;;;;;;;0.00;0.00;;;;;;;7.88;81.96;98921.72;10335228;28;20077;-60
2023/01/15 03:42:18;;;;;;;0.00;0.00;;;;;;;7.92;81.81;98922.97;10334264;28;20062;-60
2023/01/15 03:47:38;;;;;;;1.05;0.00;;;;;;;7.75;81.78;98937.66;10334264;28;20062;-60
2023/01/15 03:53:16;;;;;;;0.00;0.00;;;;;;;7.53;81.74;98936.84;10336891;28;20081;-60
2023/01/15 03:58:46;;;;;;;0.17;0.00;;;;;;;7.37;82.25;98937.09;10333903;28;20088;-59
2023/01/15 04:03:49;;;;;;;0.40;0.00;;;;;;;7.25;81.68;98942.94;10336307;28;20042;-59
2023/01/15 04:08:51;;;;;;;0.57;0.03;;;;;;;7.13;81.88;98949.81;10331816;28;20484;-59
2023/01/15 04:13:53;;;;;;;0.00;0.00;;;;;;;7.00;81.66;98985.19;10331153;28;20080;-59
2023/01/15 04:18:55;;;;;;;1.45;0.08;;;;;;;7.07;81.60;98953.19;10330681;28;20038;-59
2023/01/15 04:23:56;;;;;;;0.20;0.00;;;;;;;6.95;80.98;98971.56;10338008;28;20050;-59
2023/01/15 04:28:58;;;;;;;1.55;0.00;;;;;;;6.85;80.68;98981.72;10339869;28;20069;-59
2023/01/15 04:33:59;;;;;;;0.00;0.00;;;;;;;6.71;80.79;98988.72;10340919;28;20402;-60
2023/01/15 04:39:04;;;;;;;0.52;0.00;;;;;;;6.64;80.99;98985.97;10340072;28;20085;-62
2023/01/15 04:44:05;;;;;;;0.63;0.00;;;;;;;6.62;80.85;99004.00;10341224;28;20085;-60
2023/01/15 04:49:10;;;;;;;1.38;0.00;;;;;;;6.50;80.97;99008.16;10342119;28;20038;-60
2023/01/15 04:54:14;;;;;;;0.00;0.00;;;;;;;6.54;80.79;98990.75;10337912;28;20050;-60
2023/01/15 04:59:18;;;;;;;2.13;0.00;;;;;;;6.62;80.46;98992.50;10339334;28;20042;-58
2023/01/15 05:04:20;;;;;;;1.17;0.00;;;;;;;6.66;80.61;98999.13;10337882;28;20074;-59
2023/01/15 05:09:22;;;;;;;0.00;0.00;;;;;;;6.76;80.03;98999.69;10338148;28;20046;-59
2023/01/15 05:14:23;;;;;;;1.15;0.00;;;;;;;6.84;79.64;98988.09;10337458;28;20105;-59
2023/01/15 05:19:25;;;;;;;0.00;0.00;;;;;;;7.15;78.50;98982.50;10336799;28;20042;-62
2023/01/15 05:24:26;;;;;;;0.52;0.10;;;;;;;7.27;78.41;98989.03;10338180;28;20046;-65
2023/01/15 05:29:27;;;;;;;0.80;0.00;;;;;;;7.29;78.57;99002.19;10335179;28;20465;-63
2023/01/15 05:34:29;;;;;;;0.38;0.03;;;;;;;7.15;79.03;99017.25;10333937;28;20758;-66
2023/01/15 05:39:30;;;;;;;0.47;0.00;;;;;;;7.29;78.71;99032.41;10334165;28;20046;-65
2023/01/15 05:44:32;;;;;;;0.30;0.00;;;;;;;7.41;77.87;99043.47;10338610;28;20469;-64
2023/01/15 05:49:33;;;;;;;1.55;0.10;;;;;;;7.52;78.23;99039.44;10337732;28;20751;-65
2023/01/15 05:54:35;;;;;;;1.25;0.00;;;;;;;7.55;78.68;99039.09;10335325;28;20100;-63
2023/01/15 05:59:37;;;;;;;0.17;0.00;;;;;;;7.72;77.85;99048.53;10333111;28;20124;-65
2023/01/15 06:04:38;;;;;;;0.20;0.00;;;;;;;7.73;77.91;99055.53;10338302;28;20322;-62
2023/01/15 06:09:39;;;;;;;0.00;0.00;;;;;;;7.38;78.45;99056.38;10343010;28;20046;-58
2023/01/15 06:14:41;;;;;;;0.00;0.00;;;;;;;7.50;78.01;99046.84;10338330;28;20096;-59
2023/01/15 06:19:42;;;;;;;0.52;0.08;;;;;;;7.57;78.24;99045.06;10341671;28;20124;-62
2023/01/15 06:24:43;;;;;;;1.23;0.00;;;;;;;7.13;78.61;99052.16;10338822;28;20072;-59
2023/01/15 06:29:45;;;;;;;0.10;0.00;;;;;;;7.20;78.79;99041.56;10332895;28;20050;-65
2023/01/15 06:34:46;;;;;;;0.00;0.00;;;;;;;7.13;77.91;99040.66;10336312;28;20069;-59
2023/01/15 06:39:47;;;;;;;0.30;0.00;;;;;;;7.19;77.62;99052.41;10341271;28;20105;-61
2023/01/15 06:50:09;;;;;;;0.00;0.00;;;;;;;6.88;78.58;99081.00;10339248;28;20452;-59
2023/01/15 06:55:11;;;;;;;0.08;0.00;;;;;;;6.82;78.38;99075.56;10340733;28;20042;-60
2023/01/15 07:00:13;;;;;;;0.00;0.00;;;;;;;6.95;78.35;99078.41;10334806;28;20081;-60
2023/01/15 07:05:14;;;;;;;0.20;0.00;;;;;;;6.99;77.79;99089.56;10340813;28;20042;-60
2023/01/15 07:10:16;;;;;;;0.43;0.00;;;;;;;7.00;78.46;99100.06;10344966;28;20045;-59
2023/01/15 07:15:17;;;;;;;0.00;0.00;;;;;;;6.95;77.90;99105.97;10344642;28;20137;-60
2023/01/15 07:20:20;;;;;;;0.95;0.00;;;;;;;6.93;77.86;99107.16;10365784;28;20054;-63
2023/01/15 07:25:21;;;;;;;0.10;0.00;;;;;;;6.98;77.95;99123.47;10382955;28;20033;-64
2023/01/15 07:30:23;;;;;;;0.52;0.10;;;;;;;6.87;78.59;99132.78;10384336;28;20049;-63
2023/01/15 07:35:24;;;;;;;0.00;0.00;;;;;;;6.78;78.36;99135.72;10381350;28;20049;-63
2023/01/15 07:40:25;;;;;;;2.40;0.10;;;;;;;6.62;78.57;99144.69;10385405;28;20037;-64
2023/01/15 07:50:47;;;;;;;0.32;0.32;;;;;;;6.63;78.44;99146.34;10387695;28;20034;-63
2023/01/15 07:55:48;;;;;;;0.50;0.10;;;;;;;6.64;78.47;99150.69;10389571;28;20305;-63
2023/01/15 08:00:50;;;;;;;1.33;0.00;;;;;;;6.63;78.90;99157.03;10385272;28;20034;-63
2023/01/15 08:05:51;;;;;;;0.70;0.00;;;;;;;6.68;79.35;99160.81;10388122;28;20046;-63
2023/01/15 08:16:13;;;;;;;2.10;0.10;;;;;;;6.72;79.28;99166.63;10385928;28;20060;-64
2023/01/15 08:21:15;;;;;;;1.58;0.20;;;;;;;6.80;79.01;99173.75;10386884;28;20053;-63
2023/01/15 08:26:17;;;;;;;2.10;0.38;;;;;;;6.85;79.22;99177.53;10386266;23;20128;-88
2023/01/15 08:31:18;;;;;;;0.90;0.40;;;;;;;6.88;80.21;99176.34;10323786;28;20039;-89
2023/01/15 08:36:20;;;;;;;2.08;0.20;;;;;;;6.84;79.72;99173.19;10364284;28;20038;-89
2023/01/15 08:41:21;;;;;;;1.88;0.20;;;;;;;6.88;80.40;99187.03;10364534;28;20073;-88
2023/01/15 08:46:23;;;;;;;1.83;0.30;;;;;;;6.77;80.79;99185.59;10378673;28;20061;-88
2023/01/15 08:51:24;;;;;;;0.38;0.17;;;;;;;6.74;80.80;99200.16;10390834;28;20112;-89
2023/01/15 08:56:26;;;;;;;0.30;0.10;;;;;;;6.80;81.08;99205.81;10378638;28;20045;-88
2023/01/15 09:01:27;;;;;;;0.10;0.10;;;;;;;6.74;80.70;99212.69;10383325;28;20042;-88
2023/01/15 09:06:29;;;;;;;1.00;0.10;;;;;;;6.67;80.62;99223.22;10346551;28;20050;-88
2023/01/15 09:11:30;;;;;;;0.10;0.00;;;;;;;6.59;81.74;99217.97;10370933;28;20033;-88
2023/01/15 09:16:33;;;;;;;0.93;0.00;;;;;;;6.61;81.53;99234.63;10421674;28;20038;-87
2023/01/15 09:21:35;;;;;;;0.17;0.10;;;;;;;6.60;81.77;99240.19;10419394;28;20045;-87
2023/01/15 09:26:38;;;;;;;1.17;0.05;;;;;;;6.64;81.48;99230.78;10398081;28;20403;-88
2023/01/15 09:31:40;;;;;;;0.45;0.20;;;;;;;6.69;80.89;99231.06;10417246;28;20045;-87
2023/01/15 09:36:41;;;;;;;0.15;0.10;;;;;;;6.62;81.35;99248.84;10398865;28;20052;-87
2023/01/15 09:42:14;;;;;;;0.22;0.05;;;;;;;6.58;81.69;99260.88;10421659;28;20037;-87
2023/01/15 09:47:25;;;;;;;0.47;0.03;;;;;;;6.63;81.64;99240.63;10414438;28;20053;-87
2023/01/15 09:52:49;;;;;;;0.45;0.05;;;;;;;6.53;81.67;99248.88;10413342;28;20050;-87
2023/01/15 09:57:55;;;;;;;0.08;0.03;;;;;;;6.53;81.06;99256.88;10419538;28;20452;-88
2023/01/15 10:03:09;;;;;;;0.70;0.10;;;;;;;6.61;80.99;99274.69;10413583;28;20050;-87
2023/01/15 10:08:34;;;;;;;0.10;0.08;;;;;;;6.67;80.93;99265.97;10404013;28;20115;-88
2023/01/15 10:13:55;;;;;;;0.30;0.10;;;;;;;6.79;80.82;99257.53;10406669;28;20041;-87
2023/01/15 10:19:01;;;;;;;0.50;0.10;;;;;;;6.79;81.43;99258.38;10393259;28;20035;-86
2023/01/15 10:24:02;;;;;;;1.38;0.10;;;;;;;6.85;81.23;99263.00;10419130;28;20033;-86
2023/01/15 10:29:30;;;;;;;1.15;0.55;;;;;;;6.93;80.76;99270.97;10430315;28;20076;-87
2023/01/15 10:41:42;;;;;;;0.77;0.10;;;;;;;6.96;80.37;99261.75;10418587;28;20049;-86
2023/01/15 10:46:51;;;;;;;0.32;0.10;;;;;;;6.96;80.54;99285.78;10400671;28;20045;-86
2023/01/15 10:51:58;;;;;;;0.15;0.10;;;;;;;7.04;80.18;99290.25;10426467;28;20041;-86
2023/01/15 10:57:16;;;;;;;0.10;0.10;;;;;;;7.01;80.18;99286.09;10412246;28;20050;-87
2023/01/15 11:02:42;;;;;;;1.38;0.10;;;;;;;7.09;79.75;99275.34;10410789;28;20053;-86
2023/01/15 11:07:49;;;;;;;0.25;0.10;;;;;;;7.05;79.63;99299.91;10415069;28;20064;-86
2023/01/15 11:24:14;;;;;;;0.57;0.10;;;;;;;7.18;79.41;99313.50;10411481;28;20050;-86
2023/01/15 11:29:30;;;;;;;0.82;0.20;;;;;;;7.25;79.01;99301.09;10404025;28;20573;-87
2023/01/15 11:34:32;;;;;;;2.03;0.57;;;;;;;7.42;79.17;99304.44;10424930;28;20048;-86
2023/01/15 11:39:34;;;;;;;4.93;1.20;;;;;;;7.58;78.37;99327.50;10415217;28;20037;-87
2023/01/15 11:55:20;;;;;;;2.65;0.20;;;;;;;7.83;77.73;99329.94;10419168;28;20419;-87
2023/01/15 12:00:32;;;;;;;0.93;0.10;;;;;;;7.87;77.69;99320.53;10412762;28;20136;-87
2023/01/15 12:05:35;;;;;;;0.77;0.10;;;;;;;7.95;76.92;99323.94;10414714;28;20499;-87
2023/01/15 12:11:03;;;;;;;1.63;0.20;;;;;;;8.04;76.67;99321.19;10417297;28;20057;-87
2023/01/15 12:16:27;;;;;;;0.80;0.30;;;;;;;8.01;76.95;99314.34;10400314;28;20041;-87
2023/01/15 12:21:45;;;;;;;3.15;0.17;;;;;;;8.27;75.72;99291.63;10409834;28;20071;-87
2023/01/15 12:26:57;;;;;;;;;;;;;;;8.36;76.86;99293.19;10398760;28;20800;-86
2023/01/15 12:32:04;;;;;;;2.17;0.30;;;;;;;8.31;75.53;99271.50;10388885;28;19943;-87
2023/01/15 12:37:15;;;;;;;3.80;0.22;;;;;;;8.40;75.44;99273.03;10400025;28;20068;-86
2023/01/15 12:47:49;;;;;;;1.42;0.22;;;;;;;8.33;75.18;99274.81;10417585;28;20052;-87
2023/01/15 12:53:16;;;;;;;2.53;0.10;;;;;;;8.31;74.64;99274.16;10405682;28;20049;-87
2023/01/15 12:58:37;;;;;;;3.10;0.43;;;;;;;8.41;74.16;99273.88;10423815;28;20049;-89
2023/01/15 13:03:50;;;;;;;6.85;0.57;;;;;;;8.39;74.33;99273.22;10419479;28;20033;-87
2023/01/15 13:09:09;;;;;;;0.82;0.32;;;;;;;8.39;73.78;99259.84;10421565;28;20033;-88
2023/01/15 13:14:15;;;;;;;3.03;0.30;;;;;;;8.42;72.97;99271.03;10418890;28;20049;-87
2023/01/15 13:19:24;;;;;;;3.25;0.20;;;;;;;8.42;72.86;99254.16;10447354;28;20037;-88
2023/01/15 13:24:49;;;;;;;3.53;0.20;;;;;;;8.49;72.56;99265.75;10410462;28;20057;-87
2023/01/15 13:30:51;;;;;;;2.15;0.15;;;;;;;8.50;72.27;99272.78;10445886;28;20042;-88
2023/01/15 13:36:05;;;;;;;0.88;0.10;;;;;;;8.60;71.33;99262.56;10313911;28;20107;-88
2023/01/15 13:41:07;;;;;;;0.95;0.75;;;;;;;8.61;71.21;99260.72;10447300;28;20073;-89
2023/01/15 13:46:12;;;;;;;2.75;0.10;;;;;;;8.63;70.77;99266.72;10432504;28;20041;-88
2023/01/15 13:51:26;;;;;;;2.22;0.20;;;;;;;8.69;70.24;99292.78;10428317;28;20506;-89
2023/01/15 13:56:31;;;;;;;0.98;0.10;;;;;;;8.71;69.67;99291.56;10431005;28;20174;-89
2023/01/15 14:01:34;;;;;;;2.30;0.20;;;;;;;8.83;69.35;99289.19;10427399;28;20045;-89
2023/01/15 14:06:39;;;;;;;3.05;0.15;;;;;;;8.84;68.57;99292.69;10435242;28;20045;-89
2023/01/15 14:11:48;;;;;;;1.45;0.17;;;;;;;8.79;67.61;99304.00;10439373;28;20046;-87
2023/01/15 14:17:07;;;;;;;3.50;0.20;;;;;;;8.85;66.98;99303.25;10420728;28;20113;-89
2023/01/15 14:22:32;;;;;;;2.53;0.13;;;;;;;8.95;67.32;99312.81;10433544;28;20053;-88
2023/01/15 14:27:44;;;;;;;2.53;0.30;;;;;;;8.98;67.15;99315.09;10436366;28;20493;-89
2023/01/15 14:33:10;;;;;;;4.03;0.45;;;;;;;8.95;66.67;99326.22;10432858;28;20037;-88
2023/01/15 14:38:17;;;;;;;3.20;0.57;;;;;;;9.00;66.65;99347.91;10404286;28;20049;-88
2023/01/15 14:43:21;;;;;;;0.60;0.10;;;;;;;9.10;66.89;99354.63;10414043;28;20061;-89
2023/01/15 14:48:28;;;;;;;4.25;0.40;;;;;;;9.20;66.54;99362.34;10447938;28;20045;-89
2023/01/15 14:53:41;;;;;;;1.98;0.20;;;;;;;9.19;66.55;99360.69;10429078;28;20042;-89
2023/01/15 14:58:58;;;;;;;1.50;0.10;;;;;;;9.20;66.34;99367.72;10418191;28;20049;-88
2023/01/15 15:04:31;;;;;;;3.05;0.10;;;;;;;9.23;66.19;99375.38;10430629;28;20061;-87
2023/01/15 15:09:40;;;;;;;3.42;0.20;;;;;;;9.19;66.24;99381.31;10426678;28;20045;-88
2023/01/15 15:14:51;;;;;;;5.63;0.22;;;;;;;9.19;65.26;99390.19;10430717;28;20049;-88
2023/01/15 15:20:06;;;;;;;1.17;0.10;;;;;;;9.18;65.54;99377.78;10447423;28;20057;-88
2023/01/15 15:25:14;;;;;;;4.53;0.20;;;;;;;9.16;65.41;99379.81;10429501;28;20112;-88
2023/01/15 15:30:19;;;;;;;2.22;0.30;;;;;;;9.18;65.50;99387.69;10407693;28;20049;-87
2023/01/15 15:35:26;;;;;;;4.85;0.35;;;;;;;9.17;65.33;99376.13;10424325;28;20055;-87
2023/01/15 15:40:35;;;;;;;1.25;0.20;;;;;;;9.12;65.30;99406.22;10429286;28;20049;-88
2023/01/15 15:50:57;;;;;;;1.42;0.50;;;;;;;9.06;65.48;99392.72;10431423;28;20104;-88
2023/01/15 15:55:59;;;;;;;4.55;0.35;;;;;;;9.00;65.41;99401.50;10427566;28;20111;-87
2023/01/15 16:01:01;;;;;;;5.63;0.30;;;;;;;9.00;65.70;99407.69;10433843;28;20053;-88
2023/01/15 16:06:06;;;;;;;1.60;0.22;;;;;;;9.02;65.61;99388.75;10430113;28;20060;-88
2023/01/15 16:11:11;;;;;;;1.85;0.15;;;;;;;8.94;65.89;99395.06;10410761;28;20401;-89
2023/01/15 16:16:15;;;;;;;7.80;0.50;;;;;;;8.74;66.86;99408.22;10424381;28;20045;-89
2023/01/15 16:21:25;;;;;;;3.88;0.70;;;;;;;8.18;67.80;99411.38;10410013;28;20589;-90
2023/01/15 16:26:33;;;;;;;3.17;0.30;;;;;;;7.78;69.59;99396.53;10443977;28;20058;-89
2023/01/15 16:31:36;;;;;;;4.03;0.22;;;;;;;7.40;70.06;99388.50;10452163;28;20045;-88
2023/01/15 16:36:41;;;;;;;1.38;0.20;;;;;;;7.29;70.67;99387.94;10440823;28;20058;-89
2023/01/15 16:41:43;;;;;;;3.67;0.20;;;;;;;7.21;70.84;99377.31;10426521;28;20107;-88
2023/01/15 16:46:57;;;;;;;1.45;0.20;;;;;;;7.24;70.19;99373.44;10415530;28;20045;-88
2023/01/15 16:52:00;;;;;;;2.05;0.20;;;;;;;7.32;70.25;99379.53;10415695;28;20049;-90
2023/01/15 16:57:04;;;;;;;1.27;0.35;;;;;;;7.45;70.14;99370.94;10410219;28;20466;-89
2023/01/15 17:02:13;;;;;;;6.47;0.50;;;;;;;7.50;69.89;99370.38;10401945;28;20038;-89
2023/01/15 17:07:37;;;;;;;3.05;0.20;;;;;;;7.50;69.66;99367.69;10421552;28;20152;-88
2023/01/15 17:12:42;;;;;;;2.03;0.63;;;;;;;7.50;70.01;99373.91;10410493;28;20050;-88
2023/01/15 17:17:51;;;;;;;1.27;0.20;;;;;;;7.52;69.91;99377.22;10427893;28;20033;-88
2023/01/15 17:22:53;;;;;;;5.15;0.30;;;;;;;7.52;70.07;99381.72;10415156;28;20193;-88
2023/01/15 17:27:58;;;;;;;3.78;0.60;;;;;;;7.46;69.91;99372.56;10424753;28;20413;-88
2023/01/15 17:33:02;;;;;;;3.38;0.90;;;;;;;7.41;70.02;99387.50;10424442;28;20053;-88
2023/01/15 17:38:05;;;;;;;3.42;0.20;;;;;;;7.36;70.06;99366.66;10421954;28;20049;-88
2023/01/15 17:43:11;;;;;;;1.02;0.10;;;;;;;7.34;70.05;99357.97;10421182;28;20606;-88
2023/01/15 17:48:13;;;;;;;0.75;0.10;;;;;;;7.29;70.02;99360.38;10437830;28;20049;-88
2023/01/15 17:53:15;;;;;;;0.60;0.40;;;;;;;7.25;70.03;99364.41;10396603;28;20497;-88
2023/01/15 18:09:06;;;;;;;1.43;0.20;;;;;;;7.17;70.32;99346.59;10416123;28;20053;-88
2023/01/15 18:14:09;;;;;;;2.67;0.20;;;;;;;7.13;70.55;99340.78;10419035;28;20150;-89
2023/01/15 18:19:10;;;;;;;1.55;0.10;;;;;;;7.12;70.68;99356.97;10421217;28;20045;-89
2023/01/15 18:24:12;;;;;;;0.57;0.30;;;;;;;7.13;70.61;99350.66;10427793;28;20045;-89
2023/01/15 18:29:13;;;;;;;1.23;0.20;;;;;;;7.17;70.94;99346.59;10429742;28;20483;-90
2023/01/15 18:34:15;;;;;;;0.82;0.20;;;;;;;7.18;71.04;99334.06;10432782;28;20049;-89
2023/01/15 18:39:18;;;;;;;1.10;0.32;;;;;;;7.22;71.21;99324.66;10434516;28;20054;-89
2023/01/15 18:49:43;;;;;;;3.13;0.20;;;;;;;7.10;71.66;99316.25;10359041;28;20065;-62
2023/01/15 18:54:44;;;;;;;1.75;0.20;;;;;;;7.10;71.67;99316.25;10360750;28;20124;-65
2023/01/15 18:59:46;;;;;;;3.38;0.32;;;;;;;7.11;71.25;99312.56;10357686;28;20330;-63
2023/01/15 19:04:48;;;;;;;1.33;0.35;;;;;;;7.11;71.56;99300.03;10361887;28;20078;-62
2023/01/15 19:09:49;;;;;;;2.60;0.22;;;;;;;7.09;71.14;99299.38;10354447;28;20034;-64
2023/01/15 19:20:16;;;;;;;5.18;0.77;;;;;;;7.15;71.42;99285.31;10362874;28;20268;-66
2023/01/15 19:25:19;;;;;;;5.78;0.38;;;;;;;7.28;71.27;99282.00;10366024;28;20065;-64
2023/01/15 19:30:21;;;;;;;2.53;0.40;;;;;;;7.31;71.44;99286.19;10363321;28;20037;-64
2023/01/15 19:35:23;;;;;;;5.20;0.40;;;;;;;7.34;71.59;99273.25;10351285;28;20030;-61
2023/01/15 19:40:28;;;;;;;4.13;0.40;;;;;;;7.41;71.56;99277.91;10360507;28;20046;-63
2023/01/15 19:50:54;;;;;;;1.45;0.47;;;;;;;7.45;71.46;99268.50;10360859;28;20026;-62
2023/01/15 19:55:55;;;;;;;2.67;0.25;;;;;;;7.52;70.59;99270.25;10364894;28;20062;-64
2023/01/15 20:00:57;;;;;;;3.88;0.30;;;;;;;7.53;70.45;99249.69;10366330;28;20042;-64
2023/01/15 20:05:58;;;;;;;3.45;0.30;;;;;;;7.57;69.90;99255.50;10367705;28;20157;-63
2023/01/15 20:10:59;;;;;;;2.33;0.32;;;;;;;7.54;70.16;99246.00;10370083;28;20042;-62
2023/01/15 20:16:09;;;;;;;1.25;0.20;;;;;;;7.54;70.27;99246.00;10366727;28;20038;-63
2023/01/15 20:21:13;;;;;;;6.50;0.50;;;;;;;7.47;70.23;99250.44;10367095;28;20038;-66
2023/01/15 20:26:14;;;;;;;1.63;0.82;;;;;;;7.38;70.68;99238.16;10370351;28;20042;-62
2023/01/15 20:31:17;;;;;;;3.58;0.50;;;;;;;7.30;70.94;99233.72;10368428;28;20037;-63
2023/01/15 20:36:19;;;;;;;3.70;0.50;;;;;;;7.17;72.01;99242.38;10368182;28;20047;-64
2023/01/15 20:46:41;;;;;;;4.53;0.30;;;;;;;6.70;73.43;99238.91;10363704;28;20038;-61
2023/01/15 20:51:44;;;;;;;5.82;0.60;;;;;;;6.50;73.89;99225.22;10359566;28;20046;-60
2023/01/15 20:56:45;;;;;;;3.70;0.60;;;;;;;6.37;74.20;99222.28;10359946;28;20058;-61
2023/01/15 21:01:46;;;;;;;3.92;0.90;;;;;;;6.33;73.52;99220.97;10365095;28;20051;-61
2023/01/15 21:06:48;;;;;;;3.83;0.75;;;;;;;6.37;74.45;99216.13;10373182;28;20042;-63
2023/01/15 21:11:49;;;;;;;5.22;0.57;;;;;;;6.53;73.87;99203.47;10375120;28;20050;-62
2023/01/15 21:16:51;;;;;;;3.20;0.77;;;;;;;6.64;74.06;99201.44;10375021;28;20034;-62
2023/01/15 21:21:52;;;;;;;2.42;0.50;;;;;;;6.56;74.49;99202.31;10372724;28;20051;-63
2023/01/15 21:26:54;;;;;;;5.13;0.70;;;;;;;6.34;75.16;99191.47;10374991;28;20053;-62
2023/01/15 21:31:55;;;;;;;5.20;0.40;;;;;;;6.30;75.98;99179.47;10376386;28;20043;-62
2023/01/15 21:36:57;;;;;;;3.88;0.52;;;;;;;6.29;75.32;99177.81;10374923;28;20027;-62
2023/01/15 21:47:18;;;;;;;2.53;0.32;;;;;;;6.42;75.41;99163.88;10371491;28;20034;-63
2023/01/15 21:52:20;;;;;;;5.50;0.70;;;;;;;6.49;75.65;99155.97;10373812;28;20038;-63
2023/01/15 21:57:21;;;;;;;7.25;0.73;;;;;;;6.59;74.88;99150.38;10372306;28;20053;-61
2023/01/15 22:02:22;;;;;;;2.78;0.60;;;;;;;6.71;75.55;99132.91;10369196;28;20046;-62
2023/01/15 22:07:24;;;;;;;7.97;0.65;;;;;;;6.81;74.84;99132.66;10369055;28;20030;-62
2023/01/15 22:12:25;;;;;;;5.95;0.77;;;;;;;6.86;75.16;99128.44;10367760;28;20239;-60
2023/01/15 22:17:27;;;;;;;4.30;0.60;;;;;;;6.75;75.33;99124.38;10373149;28;20053;-62
2023/01/15 22:22:29;;;;;;;2.85;0.47;;;;;;;6.71;75.08;99112.41;10368094;28;20046;-62
2023/01/15 22:27:33;;;;;;;4.47;0.50;;;;;;;6.80;74.36;99105.13;10367993;28;20034;-62
2023/01/15 22:32:34;;;;;;;4.55;0.95;;;;;;;6.75;74.53;99095.00;10368556;28;20076;-61
2023/01/15 22:37:36;;;;;;;8.13;1.48;;;;;;;6.70;74.51;99085.88;10364242;28;20035;-62
2023/01/15 22:42:38;;;;;;;6.20;0.50;;;;;;;6.62;75.35;99070.75;10368472;28;20054;-62
2023/01/15 22:47:39;;;;;;;2.10;0.40;;;;;;;6.63;75.55;99072.41;10364870;28;20023;-64
2023/01/15 22:52:40;;;;;;;7.28;1.30;;;;;;;6.64;75.34;99057.25;10363213;28;20042;-62
2023/01/15 22:57:42;;;;;;;3.17;0.50;;;;;;;6.71;74.81;99051.00;10362650;28;20043;-60
2023/01/15 23:03:03;;;;;;;4.55;1.05;;;;;;;6.73;75.66;99030.28;10365525;28;20053;-62
2023/01/15 23:08:05;;;;;;;8.30;0.40;;;;;;;6.74;75.19;99023.06;10363507;28;20512;-63
2023/01/15 23:13:07;;;;;;;5.78;0.65;;;;;;;6.77;75.77;99017.34;10366017;28;20039;-62
2023/01/15 23:18:08;;;;;;;5.13;0.50;;;;;;;6.81;75.70;98999.94;10360648;28;20058;-61
2023/01/15 23:23:10;;;;;;;2.97;0.63;;;;;;;6.87;76.08;98993.03;10360356;28;20046;-62
2023/01/15 23:28:11;;;;;;;4.00;0.35;;;;;;;6.88;76.21;98981.34;10359111;28;20038;-63
2023/01/15 23:33:12;;;;;;;2.80;0.30;;;;;;;6.94;75.49;98977.94;10362235;28;20046;-62
2023/01/15 23:38:14;;;;;;;4.63;0.40;;;;;;;6.98;75.90;98968.53;10366246;28;20042;-61
2023/01/15 23:48:37;;;;;;;1.98;0.32;;;;;;;7.02;75.46;98942.28;10362928;28;20046;-62
2023/01/15 23:53:38;;;;;;;4.18;0.40;;;;;;;7.11;75.71;98930.47;10358339;28;20516;-62
2023/01/15 23:58:40;;;;;;;3.90;0.20;;;;;;;7.14;75.41;98938.91;10357080;28;20034;-62
